sensor_id;sensor_type;location;lat;lon;timestamp;pressure;altitude;pressure_sealevel;temperature;humidity
44481;BME280;30184;42.018;23.670;2023-06-14T00:00:40;91273.25;;;14.54;100.00
44481;BME280;30184;42.018;23.670;2023-06-14T00:03:10;91279.19;;;14.53;100.00
44481;BME280;30184;42.018;23.670;2023-06-14T00:05:45;91277.66;;;14.52;100.00
44481;BME280;30184;42.018;23.670;2023-06-14T00:08:14;91260.25;;;14.40;100.00
44481;BME280;30184;42.018;23.670;2023-06-14T00:10:44;91268.91;;;14.39;100.00
44481;BME280;30184;42.018;23.670;2023-06-14T00:13:14;91272.69;;;14.32;100.00
44481;BME280;30184;42.018;23.670;2023-06-14T00:15:44;91270.28;;;14.25;100.00
44481;BME280;30184;42.018;23.670;2023-06-14T00:18:14;91265.75;;;14.22;100.00
44481;BME280;30184;42.018;23.670;2023-06-14T00:20:44;91259.22;;;14.19;100.00
44481;BME280;30184;42.018;23.670;2023-06-14T00:23:14;91265.75;;;14.22;100.00
44481;BME280;30184;42.018;23.670;2023-06-14T00:25:44;91263.31;;;14.24;100.00
44481;BME280;30184;42.018;23.670;2023-06-14T00:28:14;91203.88;;;13.68;100.00
44481;BME280;30184;42.018;23.670;2023-06-14T00:30:44;91258.16;;;14.26;100.00
44481;BME280;30184;42.018;23.670;2023-06-14T00:33:14;91257.22;;;14.29;100.00
44481;BME280;30184;42.018;23.670;2023-06-14T00:35:43;91273.16;;;14.31;100.00
44481;BME280;30184;42.018;23.670;2023-06-14T00:38:13;91251.66;;;14.24;100.00
44481;BME280;30184;42.018;23.670;2023-06-14T00:40:42;91134.28;;;13.39;100.00
44481;BME280;30184;42.018;23.670;2023-06-14T00:43:14;91249.34;;;14.31;100.00
44481;BME280;30184;42.018;23.670;2023-06-14T00:45:44;91244.94;;;14.34;100.00
44481;BME280;30184;42.018;23.670;2023-06-14T00:48:13;91242.38;;;14.30;100.00
44481;BME280;30184;42.018;23.670;2023-06-14T00:50:44;91233.63;;;14.17;100.00
44481;BME280;30184;42.018;23.670;2023-06-14T00:53:16;91189.16;;;13.83;100.00
44481;BME280;30184;42.018;23.670;2023-06-14T00:55:46;91234.97;;;14.22;100.00
44481;BME280;30184;42.018;23.670;2023-06-14T00:58:18;91222.91;;;14.04;100.00
44481;BME280;30184;42.018;23.670;2023-06-14T01:00:48;91250.13;;;14.23;100.00
44481;BME280;30184;42.018;23.670;2023-06-14T01:03:18;91241.50;;;14.24;100.00
44481;BME280;30184;42.018;23.670;2023-06-14T01:05:56;91209.59;;;13.97;100.00
44481;BME280;30184;42.018;23.670;2023-06-14T01:08:43;91237.84;;;14.27;100.00
44481;BME280;30184;42.018;23.670;2023-06-14T01:11:21;91109.59;;;13.43;100.00
44481;BME280;30184;42.018;23.670;2023-06-14T01:13:54;91236.34;;;14.26;100.00
44481;BME280;30184;42.018;23.670;2023-06-14T01:16:25;91241.59;;;14.30;100.00
44481;BME280;30184;42.018;23.670;2023-06-14T01:18:55;91234.94;;;14.31;100.00
44481;BME280;30184;42.018;23.670;2023-06-14T01:21:26;91231.44;;;14.30;100.00
44481;BME280;30184;42.018;23.670;2023-06-14T01:23:57;91237.97;;;14.33;100.00
44481;BME280;30184;42.018;23.670;2023-06-14T01:26:27;91224.19;;;14.27;100.00
44481;BME280;30184;42.018;23.670;2023-06-14T01:29:00;91237.22;;;14.32;100.00
44481;BME280;30184;42.018;23.670;2023-06-14T01:31:29;91237.53;;;14.25;100.00
44481;BME280;30184;42.018;23.670;2023-06-14T01:34:07;91235.69;;;14.31;100.00
44481;BME280;30184;42.018;23.670;2023-06-14T01:36:41;91235.25;;;14.33;100.00
44481;BME280;30184;42.018;23.670;2023-06-14T01:39:14;91227.81;;;14.33;100.00
44481;BME280;30184;42.018;23.670;2023-06-14T01:41:44;91242.81;;;14.29;100.00
44481;BME280;30184;42.018;23.670;2023-06-14T01:44:14;91220.84;;;14.32;100.00
44481;BME280;30184;42.018;23.670;2023-06-14T01:46:44;91246.50;;;14.26;100.00
44481;BME280;30184;42.018;23.670;2023-06-14T01:49:14;91240.00;;;14.14;100.00
44481;BME280;30184;42.018;23.670;2023-06-14T01:51:43;91216.06;;;14.00;100.00
44481;BME280;30184;42.018;23.670;2023-06-14T01:54:14;91234.25;;;14.03;100.00
44481;BME280;30184;42.018;23.670;2023-06-14T01:56:43;91225.94;;;13.97;100.00
44481;BME280;30184;42.018;23.670;2023-06-14T01:59:12;91204.94;;;13.79;100.00
44481;BME280;30184;42.018;23.670;2023-06-14T02:01:41;91224.75;;;13.89;100.00
44481;BME280;30184;42.018;23.670;2023-06-14T02:04:10;91222.50;;;13.88;100.00
44481;BME280;30184;42.018;23.670;2023-06-14T02:06:40;91221.56;;;13.81;100.00
44481;BME280;30184;42.018;23.670;2023-06-14T02:09:09;91230.69;;;13.78;100.00
44481;BME280;30184;42.018;23.670;2023-06-14T02:11:39;91219.94;;;13.75;100.00
44481;BME280;30184;42.018;23.670;2023-06-14T02:14:08;91224.06;;;13.61;100.00
44481;BME280;30184;42.018;23.670;2023-06-14T02:16:39;91233.13;;;13.67;100.00
44481;BME280;30184;42.018;23.670;2023-06-14T02:19:08;91231.28;;;13.64;100.00
44481;BME280;30184;42.018;23.670;2023-06-14T02:21:37;91233.75;;;13.62;100.00
44481;BME280;30184;42.018;23.670;2023-06-14T02:24:07;91234.66;;;13.59;100.00
44481;BME280;30184;42.018;23.670;2023-06-14T02:26:36;91236.31;;;13.57;100.00
44481;BME280;30184;42.018;23.670;2023-06-14T02:29:07;91215.41;;;13.35;100.00
44481;BME280;30184;42.018;23.670;2023-06-14T02:31:40;91235.88;;;13.49;100.00
44481;BME280;30184;42.018;23.670;2023-06-14T02:34:09;91240.69;;;13.45;100.00
44481;BME280;30184;42.018;23.670;2023-06-14T02:36:39;91231.47;;;13.33;100.00
44481;BME280;30184;42.018;23.670;2023-06-14T02:39:09;91239.50;;;13.37;100.00
44481;BME280;30184;42.018;23.670;2023-06-14T02:41:39;91235.25;;;13.18;100.00
44481;BME280;30184;42.018;23.670;2023-06-14T02:44:10;91247.22;;;13.20;100.00
44481;BME280;30184;42.018;23.670;2023-06-14T02:46:40;91242.66;;;13.17;100.00
44481;BME280;30184;42.018;23.670;2023-06-14T02:49:11;91216.53;;;12.70;100.00
44481;BME280;30184;42.018;23.670;2023-06-14T02:51:40;91256.00;;;13.15;100.00
44481;BME280;30184;42.018;23.670;2023-06-14T02:54:09;91264.63;;;13.14;100.00
44481;BME280;30184;42.018;23.670;2023-06-14T02:56:39;91264.13;;;13.06;100.00
44481;BME280;30184;42.018;23.670;2023-06-14T02:59:10;91268.97;;;13.11;100.00
44481;BME280;30184;42.018;23.670;2023-06-14T03:01:41;91238.97;;;12.93;100.00
44481;BME280;30184;42.018;23.670;2023-06-14T03:04:13;91272.78;;;13.14;100.00
44481;BME280;30184;42.018;23.670;2023-06-14T03:06:43;91278.56;;;13.16;100.00
44481;BME280;30184;42.018;23.670;2023-06-14T03:09:20;91290.66;;;13.15;100.00
44481;BME280;30184;42.018;23.670;2023-06-14T03:11:49;91287.59;;;13.13;100.00
44481;BME280;30184;42.018;23.670;2023-06-14T03:14:20;91279.09;;;13.11;100.00
44481;BME280;30184;42.018;23.670;2023-06-14T03:16:49;91265.31;;;12.96;100.00
44481;BME280;30184;42.018;23.670;2023-06-14T03:19:24;91321.78;;;13.04;100.00
44481;BME280;30184;42.018;23.670;2023-06-14T03:21:55;91283.34;;;13.12;100.00
44481;BME280;30184;42.018;23.670;2023-06-14T03:24:27;91285.63;;;13.13;100.00
44481;BME280;30184;42.018;23.670;2023-06-14T03:26:58;91287.94;;;13.15;100.00
44481;BME280;30184;42.018;23.670;2023-06-14T03:29:30;91187.28;;;12.44;100.00
44481;BME280;30184;42.018;23.670;2023-06-14T03:32:02;91278.31;;;13.01;100.00
44481;BME280;30184;42.018;23.670;2023-06-14T03:34:37;91287.63;;;13.22;100.00
44481;BME280;30184;42.018;23.670;2023-06-14T03:37:09;91292.91;;;13.25;100.00
44481;BME280;30184;42.018;23.670;2023-06-14T03:39:38;91298.53;;;13.31;100.00
44481;BME280;30184;42.018;23.670;2023-06-14T03:42:17;91295.69;;;13.34;100.00
44481;BME280;30184;42.018;23.670;2023-06-14T03:44:49;91295.50;;;13.38;100.00
44481;BME280;30184;42.018;23.670;2023-06-14T03:47:21;91299.31;;;13.40;100.00
44481;BME280;30184;42.018;23.670;2023-06-14T03:49:50;91299.47;;;13.46;100.00
44481;BME280;30184;42.018;23.670;2023-06-14T03:52:19;91295.38;;;13.51;100.00
44481;BME280;30184;42.018;23.670;2023-06-14T03:54:50;91318.84;;;13.57;100.00
44481;BME280;30184;42.018;23.670;2023-06-14T03:57:23;91300.06;;;13.41;100.00
44481;BME280;30184;42.018;23.670;2023-06-14T03:59:55;91308.72;;;13.67;100.00
44481;BME280;30184;42.018;23.670;2023-06-14T04:02:26;91309.59;;;13.73;100.00
44481;BME280;30184;42.018;23.670;2023-06-14T04:04:56;91304.91;;;13.82;100.00
44481;BME280;30184;42.018;23.670;2023-06-14T04:07:25;91308.06;;;13.90;100.00
44481;BME280;30184;42.018;23.670;2023-06-14T04:09:56;91301.72;;;13.93;100.00
44481;BME280;30184;42.018;23.670;2023-06-14T04:12:25;91308.38;;;13.92;100.00
44481;BME280;30184;42.018;23.670;2023-06-14T04:14:56;91303.84;;;14.07;100.00
44481;BME280;30184;42.018;23.670;2023-06-14T04:17:30;91300.63;;;14.18;100.00
44481;BME280;30184;42.018;23.670;2023-06-14T04:20:01;91301.22;;;14.22;100.00
44481;BME280;30184;42.018;23.670;2023-06-14T04:22:33;91303.03;;;14.25;100.00
44481;BME280;30184;42.018;23.670;2023-06-14T04:25:04;91305.16;;;14.30;100.00
44481;BME280;30184;42.018;23.670;2023-06-14T04:27:34;91306.66;;;14.31;100.00
44481;BME280;30184;42.018;23.670;2023-06-14T04:30:07;91313.63;;;14.32;100.00
44481;BME280;30184;42.018;23.670;2023-06-14T04:32:42;91310.91;;;14.32;100.00
44481;BME280;30184;42.018;23.670;2023-06-14T04:35:12;91314.53;;;14.38;100.00
44481;BME280;30184;42.018;23.670;2023-06-14T04:37:44;91313.00;;;14.46;100.00
44481;BME280;30184;42.018;23.670;2023-06-14T04:40:13;91321.06;;;14.50;100.00
44481;BME280;30184;42.018;23.670;2023-06-14T04:42:43;91316.63;;;14.62;100.00
44481;BME280;30184;42.018;23.670;2023-06-14T04:45:17;91318.38;;;14.74;100.00
44481;BME280;30184;42.018;23.670;2023-06-14T04:47:46;91318.50;;;14.88;100.00
44481;BME280;30184;42.018;23.670;2023-06-14T04:50:16;91317.69;;;14.97;100.00
44481;BME280;30184;42.018;23.670;2023-06-14T04:52:45;91319.63;;;15.29;100.00
44481;BME280;30184;42.018;23.670;2023-06-14T04:55:19;91322.72;;;15.55;99.44
44481;BME280;30184;42.018;23.670;2023-06-14T04:57:48;91279.25;;;15.48;99.48
44481;BME280;30184;42.018;23.670;2023-06-14T05:00:22;91320.81;;;15.85;98.66
44481;BME280;30184;42.018;23.670;2023-06-14T05:02:52;91328.94;;;15.94;95.91
44481;BME280;30184;42.018;23.670;2023-06-14T05:05:22;91333.91;;;16.20;94.98
44481;BME280;30184;42.018;23.670;2023-06-14T05:07:51;91332.22;;;16.52;93.92
44481;BME280;30184;42.018;23.670;2023-06-14T05:10:20;91329.72;;;16.63;88.99
44481;BME280;30184;42.018;23.670;2023-06-14T05:12:50;91336.03;;;16.69;86.82
44481;BME280;30184;42.018;23.670;2023-06-14T05:15:22;91332.25;;;16.81;87.28
44481;BME280;30184;42.018;23.670;2023-06-14T05:17:54;91337.34;;;16.88;86.97
44481;BME280;30184;42.018;23.670;2023-06-14T05:20:24;91342.34;;;16.31;88.03
44481;BME280;30184;42.018;23.670;2023-06-14T05:22:54;91333.38;;;17.04;87.97
44481;BME280;30184;42.018;23.670;2023-06-14T05:25:24;91331.56;;;17.01;84.76
44481;BME280;30184;42.018;23.670;2023-06-14T05:27:53;91317.97;;;16.92;85.96
44481;BME280;30184;42.018;23.670;2023-06-14T05:30:24;91330.34;;;17.02;85.19
44481;BME280;30184;42.018;23.670;2023-06-14T05:32:54;91335.81;;;17.02;85.62
44481;BME280;30184;42.018;23.670;2023-06-14T05:35:23;91333.50;;;17.15;86.60
44481;BME280;30184;42.018;23.670;2023-06-14T05:37:54;91336.00;;;17.13;85.14
44481;BME280;30184;42.018;23.670;2023-06-14T05:40:24;91321.53;;;16.98;85.51
44481;BME280;30184;42.018;23.670;2023-06-14T05:42:53;91328.13;;;17.06;85.68
44481;BME280;30184;42.018;23.670;2023-06-14T05:45:23;91337.81;;;17.36;85.08
44481;BME280;30184;42.018;23.670;2023-06-14T05:47:53;91325.75;;;17.63;84.01
44481;BME280;30184;42.018;23.670;2023-06-14T05:50:22;91303.59;;;17.87;82.62
44481;BME280;30184;42.018;23.670;2023-06-14T05:52:52;91310.00;;;18.24;80.57
44481;BME280;30184;42.018;23.670;2023-06-14T05:55:22;91318.72;;;18.49;80.24
44481;BME280;30184;42.018;23.670;2023-06-14T05:57:51;91318.22;;;18.71;77.68
44481;BME280;30184;42.018;23.670;2023-06-14T06:00:20;91304.13;;;18.89;77.18
44481;BME280;30184;42.018;23.670;2023-06-14T06:02:51;91307.75;;;19.06;76.43
44481;BME280;30184;42.018;23.670;2023-06-14T06:05:20;91305.91;;;19.29;76.85
44481;BME280;30184;42.018;23.670;2023-06-14T06:07:49;91316.03;;;19.43;75.83
44481;BME280;30184;42.018;23.670;2023-06-14T06:10:18;91316.59;;;19.53;73.65
44481;BME280;30184;42.018;23.670;2023-06-14T06:12:48;91314.28;;;19.46;75.98
44481;BME280;30184;42.018;23.670;2023-06-14T06:15:19;91307.81;;;19.49;75.29
44481;BME280;30184;42.018;23.670;2023-06-14T06:17:48;91307.09;;;19.54;74.00
44481;BME280;30184;42.018;23.670;2023-06-14T06:20:23;91309.81;;;19.48;72.79
44481;BME280;30184;42.018;23.670;2023-06-14T06:22:56;91257.69;;;18.96;73.23
44481;BME280;30184;42.018;23.670;2023-06-14T06:25:26;91304.44;;;19.33;74.44
44481;BME280;30184;42.018;23.670;2023-06-14T06:27:55;91312.69;;;19.33;74.40
44481;BME280;30184;42.018;23.670;2023-06-14T06:30:25;91269.16;;;18.89;75.56
44481;BME280;30184;42.018;23.670;2023-06-14T06:32:54;91310.63;;;19.23;76.58
44481;BME280;30184;42.018;23.670;2023-06-14T06:35:24;91308.16;;;19.25;77.46
44481;BME280;30184;42.018;23.670;2023-06-14T06:37:54;91316.91;;;19.29;77.24
44481;BME280;30184;42.018;23.670;2023-06-14T06:40:23;91313.66;;;19.25;77.33
44481;BME280;30184;42.018;23.670;2023-06-14T06:42:52;91311.16;;;19.27;78.40
44481;BME280;30184;42.018;23.670;2023-06-14T06:45:22;91318.16;;;19.28;79.66
44481;BME280;30184;42.018;23.670;2023-06-14T06:47:52;91318.22;;;19.39;76.64
44481;BME280;30184;42.018;23.670;2023-06-14T06:50:21;91314.50;;;19.42;75.42
44481;BME280;30184;42.018;23.670;2023-06-14T06:52:54;91317.03;;;19.46;75.31
44481;BME280;30184;42.018;23.670;2023-06-14T06:55:23;91311.59;;;19.51;75.38
44481;BME280;30184;42.018;23.670;2023-06-14T06:57:52;91307.41;;;19.61;76.96
44481;BME280;30184;42.018;23.670;2023-06-14T07:00:21;91303.91;;;19.66;77.39
44481;BME280;30184;42.018;23.670;2023-06-14T07:02:51;91302.50;;;19.82;80.23
44481;BME280;30184;42.018;23.670;2023-06-14T07:05:22;91303.75;;;19.87;77.28
44481;BME280;30184;42.018;23.670;2023-06-14T07:07:52;91311.31;;;19.92;77.13
44481;BME280;30184;42.018;23.670;2023-06-14T07:10:23;91314.06;;;19.97;76.62
44481;BME280;30184;42.018;23.670;2023-06-14T07:12:53;91309.59;;;20.00;76.04
44481;BME280;30184;42.018;23.670;2023-06-14T07:15:22;91308.13;;;20.10;75.64
44481;BME280;30184;42.018;23.670;2023-06-14T07:17:51;91299.63;;;20.19;75.81
44481;BME280;30184;42.018;23.670;2023-06-14T07:20:21;91308.94;;;20.33;74.18
44481;BME280;30184;42.018;23.670;2023-06-14T07:22:52;91300.72;;;20.38;72.00
44481;BME280;30184;42.018;23.670;2023-06-14T07:25:23;91307.47;;;20.37;70.90
44481;BME280;30184;42.018;23.670;2023-06-14T07:27:52;91298.97;;;20.46;71.28
44481;BME280;30184;42.018;23.670;2023-06-14T07:30:22;91296.97;;;20.53;68.29
44481;BME280;30184;42.018;23.670;2023-06-14T07:32:53;91294.00;;;20.62;71.43
44481;BME280;30184;42.018;23.670;2023-06-14T07:35:22;91281.22;;;20.64;67.86
44481;BME280;30184;42.018;23.670;2023-06-14T07:37:52;91270.91;;;20.59;71.42
44481;BME280;30184;42.018;23.670;2023-06-14T07:40:22;91280.75;;;20.94;70.40
44481;BME280;30184;42.018;23.670;2023-06-14T07:42:52;91285.22;;;20.97;69.25
44481;BME280;30184;42.018;23.670;2023-06-14T07:45:22;91290.75;;;21.08;69.65
44481;BME280;30184;42.018;23.670;2023-06-14T07:47:51;91282.22;;;21.17;69.35
44481;BME280;30184;42.018;23.670;2023-06-14T07:50:20;91280.47;;;21.25;68.95
44481;BME280;30184;42.018;23.670;2023-06-14T07:52:50;91277.97;;;21.33;67.34
44481;BME280;30184;42.018;23.670;2023-06-14T07:55:19;91274.97;;;21.31;69.13
44481;BME280;30184;42.018;23.670;2023-06-14T07:57:49;91290.22;;;21.59;69.67
44481;BME280;30184;42.018;23.670;2023-06-14T08:00:19;91276.41;;;21.54;65.84
44481;BME280;30184;42.018;23.670;2023-06-14T08:02:48;91293.69;;;21.77;65.80
44481;BME280;30184;42.018;23.670;2023-06-14T08:05:19;91299.19;;;21.82;65.35
44481;BME280;30184;42.018;23.670;2023-06-14T08:07:48;91298.44;;;21.82;63.50
44481;BME280;30184;42.018;23.670;2023-06-14T08:10:17;91292.88;;;21.87;65.21
44481;BME280;30184;42.018;23.670;2023-06-14T08:12:46;91296.41;;;21.93;65.25
44481;BME280;30184;42.018;23.670;2023-06-14T08:15:17;91295.38;;;21.96;65.26
44481;BME280;30184;42.018;23.670;2023-06-14T08:17:48;91301.94;;;22.05;64.80
44481;BME280;30184;42.018;23.670;2023-06-14T08:20:18;91291.84;;;22.13;63.91
44481;BME280;30184;42.018;23.670;2023-06-14T08:22:47;91289.25;;;22.26;66.44
44481;BME280;30184;42.018;23.670;2023-06-14T08:25:16;91290.66;;;22.44;64.15
44481;BME280;30184;42.018;23.670;2023-06-14T08:27:46;91295.63;;;22.56;63.17
44481;BME280;30184;42.018;23.670;2023-06-14T08:30:16;91291.31;;;22.66;62.04
44481;BME280;30184;42.018;23.670;2023-06-14T08:32:46;91283.75;;;22.67;62.57
44481;BME280;30184;42.018;23.670;2023-06-14T08:35:18;91291.78;;;22.76;60.82
44481;BME280;30184;42.018;23.670;2023-06-14T08:37:47;91291.78;;;22.76;60.42
44481;BME280;30184;42.018;23.670;2023-06-14T08:40:20;91295.75;;;22.81;61.90
44481;BME280;30184;42.018;23.670;2023-06-14T08:42:52;91290.16;;;22.92;60.61
44481;BME280;30184;42.018;23.670;2023-06-14T08:45:23;91286.31;;;23.00;61.70
44481;BME280;30184;42.018;23.670;2023-06-14T08:47:53;91283.53;;;23.06;64.30
44481;BME280;30184;42.018;23.670;2023-06-14T08:50:26;91286.50;;;23.08;63.62
44481;BME280;30184;42.018;23.670;2023-06-14T08:52:59;91289.75;;;23.12;60.11
44481;BME280;30184;42.018;23.670;2023-06-14T08:55:30;91282.72;;;23.11;59.96
44481;BME280;30184;42.018;23.670;2023-06-14T08:58:02;91296.97;;;23.21;58.97
44481;BME280;30184;42.018;23.670;2023-06-14T09:00:34;91282.88;;;23.24;58.93
44481;BME280;30184;42.018;23.670;2023-06-14T09:03:05;91279.34;;;23.24;58.86
44481;BME280;30184;42.018;23.670;2023-06-14T09:05:41;91275.31;;;23.25;58.95
44481;BME280;30184;42.018;23.670;2023-06-14T09:08:10;91279.75;;;23.33;59.69
44481;BME280;30184;42.018;23.670;2023-06-14T09:10:40;91267.38;;;23.40;60.67
44481;BME280;30184;42.018;23.670;2023-06-14T09:13:09;91260.72;;;23.49;59.66
44481;BME280;30184;42.018;23.670;2023-06-14T09:15:39;91267.13;;;23.68;57.14
44481;BME280;30184;42.018;23.670;2023-06-14T09:18:11;91226.19;;;23.55;56.76
44481;BME280;30184;42.018;23.670;2023-06-14T09:20:40;91206.91;;;23.44;56.65
44481;BME280;30184;42.018;23.670;2023-06-14T09:23:09;91249.44;;;23.95;55.33
44481;BME280;30184;42.018;23.670;2023-06-14T09:25:45;91255.38;;;24.05;55.55
44481;BME280;30184;42.018;23.670;2023-06-14T09:28:15;91179.50;;;23.65;54.95
44481;BME280;30184;42.018;23.670;2023-06-14T09:30:46;91247.03;;;24.29;52.85
44481;BME280;30184;42.018;23.670;2023-06-14T09:33:17;91249.13;;;24.23;55.33
44481;BME280;30184;42.018;23.670;2023-06-14T09:35:46;91252.41;;;24.40;54.58
44481;BME280;30184;42.018;23.670;2023-06-14T09:38:19;91243.97;;;24.33;53.84
44481;BME280;30184;42.018;23.670;2023-06-14T09:40:49;91237.63;;;24.13;54.25
44481;BME280;30184;42.018;23.670;2023-06-14T09:43:19;91248.03;;;24.07;56.79
44481;BME280;30184;42.018;23.670;2023-06-14T09:45:51;91239.94;;;24.09;54.49
44481;BME280;30184;42.018;23.670;2023-06-14T09:48:21;91247.81;;;24.05;53.97
44481;BME280;30184;42.018;23.670;2023-06-14T09:50:50;91243.50;;;23.86;54.48
44481;BME280;30184;42.018;23.670;2023-06-14T09:53:21;91244.00;;;23.84;54.73
44481;BME280;30184;42.018;23.670;2023-06-14T09:55:52;91251.41;;;23.76;54.90
44481;BME280;30184;42.018;23.670;2023-06-14T09:58:30;91267.78;;;23.74;55.08
44481;BME280;30184;42.018;23.670;2023-06-14T10:01:05;91229.13;;;23.08;56.10
44481;BME280;30184;42.018;23.670;2023-06-14T10:03:38;91252.44;;;23.19;56.71
44481;BME280;30184;42.018;23.670;2023-06-14T10:06:17;91276.09;;;23.20;57.05
44481;BME280;30184;42.018;23.670;2023-06-14T10:08:49;91264.34;;;23.08;58.69
44481;BME280;30184;42.018;23.670;2023-06-14T10:11:19;91265.53;;;22.88;59.41
44481;BME280;30184;42.018;23.670;2023-06-14T10:13:49;91261.59;;;22.78;60.41
44481;BME280;30184;42.018;23.670;2023-06-14T10:16:23;91286.09;;;22.57;61.08
44481;BME280;30184;42.018;23.670;2023-06-14T10:19:01;91264.88;;;22.24;64.47
44481;BME280;30184;42.018;23.670;2023-06-14T10:21:36;91280.25;;;22.20;65.79
44481;BME280;30184;42.018;23.670;2023-06-14T10:24:13;91130.28;;;20.87;67.21
44481;BME280;30184;42.018;23.670;2023-06-14T10:26:52;91239.25;;;21.66;68.12
44481;BME280;30184;42.018;23.670;2023-06-14T10:29:22;91293.63;;;21.93;71.08
44481;BME280;30184;42.018;23.670;2023-06-14T10:31:56;91289.19;;;21.63;75.08
44481;BME280;30184;42.018;23.670;2023-06-14T10:34:27;91287.75;;;21.39;72.43
44481;BME280;30184;42.018;23.670;2023-06-14T10:37:04;91304.78;;;20.88;72.65
44481;BME280;30184;42.018;23.670;2023-06-14T10:39:38;91309.31;;;20.85;75.45
44481;BME280;30184;42.018;23.670;2023-06-14T10:42:09;91312.31;;;21.15;73.84
44481;BME280;30184;42.018;23.670;2023-06-14T10:44:42;91324.91;;;21.21;71.89
44481;BME280;30184;42.018;23.670;2023-06-14T10:47:26;91331.69;;;21.20;74.40
44481;BME280;30184;42.018;23.670;2023-06-14T10:49:57;91307.81;;;20.84;72.01
44481;BME280;30184;42.018;23.670;2023-06-14T10:52:28;91235.44;;;19.96;74.87
44481;BME280;30184;42.018;23.670;2023-06-14T10:55:02;91340.66;;;20.93;74.54
44481;BME280;30184;42.018;23.670;2023-06-14T10:57:33;91335.63;;;20.97;73.08
44481;BME280;30184;42.018;23.670;2023-06-14T11:00:07;91336.16;;;21.07;72.91
44481;BME280;30184;42.018;23.670;2023-06-14T11:06:13;91340.94;;;21.23;74.94
44481;BME280;30184;42.018;23.670;2023-06-14T11:09:04;91331.91;;;21.34;75.29
44481;BME280;30184;42.018;23.670;2023-06-14T11:11:42;91324.09;;;21.60;71.74
44481;BME280;30184;42.018;23.670;2023-06-14T11:14:12;91328.88;;;21.65;70.35
44481;BME280;30184;42.018;23.670;2023-06-14T11:16:42;91343.16;;;21.86;67.63
44481;BME280;30184;42.018;23.670;2023-06-14T11:19:11;91336.81;;;21.96;68.41
44481;BME280;30184;42.018;23.670;2023-06-14T11:21:41;91326.97;;;22.18;67.52
44481;BME280;30184;42.018;23.670;2023-06-14T11:24:11;91320.72;;;22.12;64.62
44481;BME280;30184;42.018;23.670;2023-06-14T11:26:41;91259.47;;;22.02;65.26
44481;BME280;30184;42.018;23.670;2023-06-14T11:29:10;91215.84;;;21.78;65.75
44481;BME280;30184;42.018;23.670;2023-06-14T11:31:43;91313.63;;;22.33;64.88
44481;BME280;30184;42.018;23.670;2023-06-14T11:34:13;91286.56;;;22.09;66.33
44481;BME280;30184;42.018;23.670;2023-06-14T11:36:45;91275.09;;;21.83;66.78
44481;BME280;30184;42.018;23.670;2023-06-14T11:39:15;91296.91;;;21.98;66.48
44481;BME280;30184;42.018;23.670;2023-06-14T11:41:45;91211.41;;;21.53;66.74
44481;BME280;30184;42.018;23.670;2023-06-14T11:44:14;91288.38;;;21.95;65.36
44481;BME280;30184;42.018;23.670;2023-06-14T11:46:44;91287.13;;;21.80;66.90
44481;BME280;30184;42.018;23.670;2023-06-14T11:49:14;91292.47;;;21.61;68.37
44481;BME280;30184;42.018;23.670;2023-06-14T11:51:46;91297.28;;;21.49;68.42
44481;BME280;30184;42.018;23.670;2023-06-14T11:54:15;91293.53;;;21.36;71.01
44481;BME280;30184;42.018;23.670;2023-06-14T11:56:45;91295.28;;;21.28;72.80
44481;BME280;30184;42.018;23.670;2023-06-14T11:59:15;91264.44;;;20.90;72.73
44481;BME280;30184;42.018;23.670;2023-06-14T12:01:44;91300.81;;;21.22;74.05
44481;BME280;30184;42.018;23.670;2023-06-14T12:04:14;91303.78;;;21.07;77.06
44481;BME280;30184;42.018;23.670;2023-06-14T12:06:45;91327.13;;;21.06;78.10
44481;BME280;30184;42.018;23.670;2023-06-14T12:09:14;91305.06;;;21.01;79.42
44481;BME280;30184;42.018;23.670;2023-06-14T12:11:45;91239.34;;;20.55;79.93
44481;BME280;30184;42.018;23.670;2023-06-14T12:14:15;91304.03;;;20.87;83.34
44481;BME280;30184;42.018;23.670;2023-06-14T12:16:45;91299.53;;;20.90;84.91
44481;BME280;30184;42.018;23.670;2023-06-14T12:19:16;91300.03;;;20.88;82.84
44481;BME280;30184;42.018;23.670;2023-06-14T12:21:47;91304.78;;;20.88;84.08
44481;BME280;30184;42.018;23.670;2023-06-14T12:24:18;91296.53;;;20.93;83.13
44481;BME280;30184;42.018;23.670;2023-06-14T12:26:48;91313.09;;;20.93;79.33
44481;BME280;30184;42.018;23.670;2023-06-14T12:29:19;91327.13;;;20.84;78.99
44481;BME280;30184;42.018;23.670;2023-06-14T12:31:48;91313.84;;;20.99;80.67
44481;BME280;30184;42.018;23.670;2023-06-14T12:34:17;91316.31;;;21.14;78.97
44481;BME280;30184;42.018;23.670;2023-06-14T12:36:48;91307.59;;;21.27;80.15
44481;BME280;30184;42.018;23.670;2023-06-14T12:39:19;91311.84;;;21.50;78.62
44481;BME280;30184;42.018;23.670;2023-06-14T12:41:49;91303.78;;;21.52;73.20
44481;BME280;30184;42.018;23.670;2023-06-14T12:44:18;91297.22;;;21.72;71.34
44481;BME280;30184;42.018;23.670;2023-06-14T12:46:49;91292.88;;;21.99;71.46
44481;BME280;30184;42.018;23.670;2023-06-14T12:49:22;91285.53;;;22.18;71.67
44481;BME280;30184;42.018;23.670;2023-06-14T12:51:53;91284.63;;;22.45;69.99
44481;BME280;30184;42.018;23.670;2023-06-14T12:54:22;91288.06;;;22.62;67.03
44481;BME280;30184;42.018;23.670;2023-06-14T12:57:03;91248.88;;;22.58;67.26
44481;BME280;30184;42.018;23.670;2023-06-14T12:59:32;91283.34;;;22.93;63.89
44481;BME280;30184;42.018;23.670;2023-06-14T13:02:12;91281.84;;;22.92;64.19
44481;BME280;30184;42.018;23.670;2023-06-14T13:04:42;91268.78;;;23.22;62.40
44481;BME280;30184;42.018;23.670;2023-06-14T13:07:13;91260.31;;;23.39;63.64